Mae Purissima — CUCV-5 — position and weather

sailwx.info

Track history (hours):
 
Tides and Currents Weather Stations Pressure Air Temp Water Temp Dewpoint Dewpoint Depression Visibility Wind Speed Wind Dir Waves Ship Positions

Mae Purissima

Last reported at 2017-Nov-24 15:46 UTC. Time now 2017-Nov-24 18:40 UTC.
Position N 39°15' W 009°27'.

Length 18 m.

Type: Fishing. MMSI: 263414850.

Date/timePositionNaut miles runAvg speedWind from/ knotsBaromVisibWave heightAir tempDewpointWater temp
2017-Nov-24 15:46N 39°15' W 009°27'0 1.8
2017-Nov-24 15:30N 39°14' W 009°28'1 1.6
2017-Nov-24 15:01N 39°15' W 009°28'0 0.1
2017-Nov-24 11:34N 39°15' W 009°27'0 0.2
2017-Nov-24 09:22N 39°16' W 009°27'0 0.3
2017-Nov-24 09:00N 39°16' W 009°27'2 0.5
2017-Nov-24 05:44N 39°14' W 009°27'1 5.9
2017-Nov-24 05:30N 39°15' W 009°28'  
2017-Nov-16 13:21N 39°18' W 009°30'3 3.4
2017-Nov-16 12:34N 39°16' W 009°33'0 0.9
2017-Nov-16 12:30N 39°16' W 009°33'0 0.1
2017-Nov-16 11:43N 39°16' W 009°33'0 0.9
2017-Nov-16 11:29N 39°17' W 009°33'5 1.7
2017-Nov-16 08:26N 39°16' W 009°27'0 0.5
2017-Nov-16 08:00N 39°16' W 009°27'0 0.6
2017-Nov-16 07:30N 39°16' W 009°26'0 0.7
2017-Nov-16 07:00N 39°16' W 009°27'0 0.7
2017-Nov-16 06:30N 39°16' W 009°27'0 0.7
2017-Nov-16 05:56N 39°16' W 009°27'2 3.4
2017-Nov-16 05:25N 39°16' W 009°29'3 6.4
2017-Nov-16 04:58N 39°16' W 009°33'1 2.1
2017-Nov-16 04:30N 39°17' W 009°33'3 6.8
2017-Nov-16 04:00N 39°19' W 009°29'5 7.1
2017-Nov-16 03:21N 39°20' W 009°23'1 0.2
2017-Nov-15 22:37N 39°21' W 009°22'0 0.0
2017-Nov-15 22:29N 39°21' W 009°22'0 0.0
2017-Nov-15 22:00N 39°21' W 009°22'9 1.7
2017-Nov-15 16:22N 39°17' W 009°33'1 1.2
2017-Nov-15 15:53N 39°16' W 009°33'0 1.1
2017-Nov-15 15:27N 39°17' W 009°33'1 1.2
2017-Nov-15 14:34N 39°16' W 009°33'0 1.2
2017-Nov-15 14:29N 39°16' W 009°33'0 0.7
2017-Nov-15 14:00N 39°15' W 009°33'1 1.2
2017-Nov-15 13:30N 39°16' W 009°33'3 5.5
2017-Nov-15 13:00N 39°18' W 009°30'2 0.3
2017-Nov-15 05:44N 39°16' W 009°33'1 3.7
2017-Nov-15 05:30N 39°15' W 009°33'2 3.3
2017-Nov-15 05:00N 39°17' W 009°33'2 3.7
2017-Nov-15 04:31N 39°17' W 009°31'5 0.4
2017-Nov-14 16:04N 39°20' W 009°25'  
Track history (hours):
 
Tides and Currents Weather Stations Pressure Air Temp Water Temp Dewpoint Dewpoint Depression Visibility Wind Speed Wind Dir Waves Ship Positions

Mae Purissima

Last reported at 2017-Nov-24 15:46 UTC. Time now 2017-Nov-24 18:40 UTC.
Position N 39°15' W 009°27'.

Length 18 m.

Type: Fishing. MMSI: 263414850.

Date/timePositionNaut miles runAvg speedWind from/ knotsBaromVisibWave heightAir tempDewpointWater temp
2017-Nov-24 15:46N 39°15' W 009°27'0 1.8
2017-Nov-24 15:30N 39°14' W 009°28'1 1.6
2017-Nov-24 15:01N 39°15' W 009°28'0 0.1
2017-Nov-24 11:34N 39°15' W 009°27'0 0.2
2017-Nov-24 09:22N 39°16' W 009°27'0 0.3
2017-Nov-24 09:00N 39°16' W 009°27'2 0.5
2017-Nov-24 05:44N 39°14' W 009°27'1 5.9
2017-Nov-24 05:30N 39°15' W 009°28'  
2017-Nov-16 13:21N 39°18' W 009°30'3 3.4
2017-Nov-16 12:34N 39°16' W 009°33'0 0.9
2017-Nov-16 12:30N 39°16' W 009°33'0 0.1
2017-Nov-16 11:43N 39°16' W 009°33'0 0.9
2017-Nov-16 11:29N 39°17' W 009°33'5 1.7
2017-Nov-16 08:26N 39°16' W 009°27'0 0.5
2017-Nov-16 08:00N 39°16' W 009°27'0 0.6
2017-Nov-16 07:30N 39°16' W 009°26'0 0.7
2017-Nov-16 07:00N 39°16' W 009°27'0 0.7
2017-Nov-16 06:30N 39°16' W 009°27'0 0.7
2017-Nov-16 05:56N 39°16' W 009°27'2 3.4
2017-Nov-16 05:25N 39°16' W 009°29'3 6.4
2017-Nov-16 04:58N 39°16' W 009°33'1 2.1
2017-Nov-16 04:30N 39°17' W 009°33'3 6.8
2017-Nov-16 04:00N 39°19' W 009°29'5 7.1
2017-Nov-16 03:21N 39°20' W 009°23'1 0.2
2017-Nov-15 22:37N 39°21' W 009°22'0 0.0
2017-Nov-15 22:29N 39°21' W 009°22'0 0.0
2017-Nov-15 22:00N 39°21' W 009°22'9 1.7
2017-Nov-15 16:22N 39°17' W 009°33'1 1.2
2017-Nov-15 15:53N 39°16' W 009°33'0 1.1
2017-Nov-15 15:27N 39°17' W 009°33'1 1.2
2017-Nov-15 14:34N 39°16' W 009°33'0 1.2
2017-Nov-15 14:29N 39°16' W 009°33'0 0.7
2017-Nov-15 14:00N 39°15' W 009°33'1 1.2
2017-Nov-15 13:30N 39°16' W 009°33'3 5.5
2017-Nov-15 13:00N 39°18' W 009°30'2 0.3
2017-Nov-15 05:44N 39°16' W 009°33'1 3.7
2017-Nov-15 05:30N 39°15' W 009°33'2 3.3
2017-Nov-15 05:00N 39°17' W 009°33'2 3.7
2017-Nov-15 04:31N 39°17' W 009°31'5 0.4
2017-Nov-14 16:04N 39°20' W 009°25'  

Dump ship's entire track history